sensor_id;sensor_type;location;lat;lon;timestamp;P1;durP1;ratioP1;P2;durP2;ratioP2
70663;SDS011;58237;57.996;56.290;2022-08-25T00:04:18;27.90;;;16.10;;
70663;SDS011;58237;57.996;56.290;2022-08-25T00:06:43;25.95;;;14.88;;
70663;SDS011;58237;57.996;56.290;2022-08-25T00:09:10;32.00;;;16.27;;
70663;SDS011;58237;57.996;56.290;2022-08-25T00:11:36;29.45;;;16.25;;
70663;SDS011;58237;57.996;56.290;2022-08-25T00:14:03;27.08;;;15.65;;
70663;SDS011;58237;57.996;56.290;2022-08-25T00:16:29;28.52;;;15.75;;
70663;SDS011;58237;57.996;56.290;2022-08-25T00:18:55;28.27;;;15.80;;
70663;SDS011;58237;57.996;56.290;2022-08-25T00:21:22;25.23;;;14.77;;
70663;SDS011;58237;57.996;56.290;2022-08-25T00:23:47;27.73;;;15.73;;
70663;SDS011;58237;57.996;56.290;2022-08-25T00:26:13;24.27;;;13.68;;
70663;SDS011;58237;57.996;56.290;2022-08-25T00:28:38;26.95;;;14.60;;
70663;SDS011;58237;57.996;56.290;2022-08-25T00:31:04;28.27;;;14.05;;
70663;SDS011;58237;57.996;56.290;2022-08-25T00:33:30;24.17;;;14.75;;
70663;SDS011;58237;57.996;56.290;2022-08-25T00:35:55;27.08;;;14.77;;
70663;SDS011;58237;57.996;56.290;2022-08-25T00:38:21;24.55;;;13.90;;
70663;SDS011;58237;57.996;56.290;2022-08-25T00:40:47;24.25;;;14.07;;
70663;SDS011;58237;57.996;56.290;2022-08-25T00:43:12;24.60;;;13.70;;
70663;SDS011;58237;57.996;56.290;2022-08-25T00:45:38;23.95;;;14.10;;
70663;SDS011;58237;57.996;56.290;2022-08-25T00:48:03;26.48;;;14.90;;
70663;SDS011;58237;57.996;56.290;2022-08-25T00:50:29;29.48;;;14.02;;
70663;SDS011;58237;57.996;56.290;2022-08-25T00:52:56;27.80;;;14.68;;
70663;SDS011;58237;57.996;56.290;2022-08-25T00:55:41;26.88;;;14.55;;
70663;SDS011;58237;57.996;56.290;2022-08-25T00:58:07;25.98;;;14.27;;
70663;SDS011;58237;57.996;56.290;2022-08-25T01:00:35;23.55;;;14.18;;
70663;SDS011;58237;57.996;56.290;2022-08-25T01:03:02;29.80;;;14.48;;
70663;SDS011;58237;57.996;56.290;2022-08-25T01:05:27;25.45;;;14.65;;
70663;SDS011;58237;57.996;56.290;2022-08-25T01:07:53;25.35;;;14.63;;
70663;SDS011;58237;57.996;56.290;2022-08-25T01:10:20;25.08;;;13.88;;
70663;SDS011;58237;57.996;56.290;2022-08-25T01:12:46;27.70;;;14.95;;
70663;SDS011;58237;57.996;56.290;2022-08-25T01:15:12;24.42;;;14.27;;
70663;SDS011;58237;57.996;56.290;2022-08-25T01:17:47;24.50;;;13.90;;
70663;SDS011;58237;57.996;56.290;2022-08-25T01:20:14;24.92;;;13.73;;
70663;SDS011;58237;57.996;56.290;2022-08-25T01:22:40;24.27;;;13.43;;
70663;SDS011;58237;57.996;56.290;2022-08-25T01:27:49;22.52;;;12.88;;
70663;SDS011;58237;57.996;56.290;2022-08-25T01:30:14;25.02;;;14.07;;
70663;SDS011;58237;57.996;56.290;2022-08-25T01:32:40;26.05;;;14.25;;
70663;SDS011;58237;57.996;56.290;2022-08-25T01:35:05;25.02;;;13.27;;
70663;SDS011;58237;57.996;56.290;2022-08-25T01:37:32;24.42;;;13.15;;
70663;SDS011;58237;57.996;56.290;2022-08-25T01:39:57;25.48;;;14.57;;
70663;SDS011;58237;57.996;56.290;2022-08-25T01:42:28;25.90;;;13.95;;
70663;SDS011;58237;57.996;56.290;2022-08-25T01:47:22;24.23;;;12.48;;
70663;SDS011;58237;57.996;56.290;2022-08-25T01:49:47;26.23;;;12.77;;
70663;SDS011;58237;57.996;56.290;2022-08-25T01:52:20;25.65;;;13.50;;
70663;SDS011;58237;57.996;56.290;2022-08-25T01:54:47;23.10;;;12.45;;
70663;SDS011;58237;57.996;56.290;2022-08-25T01:57:13;24.73;;;12.85;;
70663;SDS011;58237;57.996;56.290;2022-08-25T01:59:38;36.45;;;15.27;;
70663;SDS011;58237;57.996;56.290;2022-08-25T02:02:04;24.48;;;14.15;;
70663;SDS011;58237;57.996;56.290;2022-08-25T02:04:29;26.02;;;13.82;;
70663;SDS011;58237;57.996;56.290;2022-08-25T02:06:55;27.08;;;13.98;;
70663;SDS011;58237;57.996;56.290;2022-08-25T02:09:20;26.63;;;13.60;;
70663;SDS011;58237;57.996;56.290;2022-08-25T02:11:45;27.73;;;14.50;;
70663;SDS011;58237;57.996;56.290;2022-08-25T02:14:11;24.30;;;14.50;;
70663;SDS011;58237;57.996;56.290;2022-08-25T02:16:38;24.67;;;14.05;;
70663;SDS011;58237;57.996;56.290;2022-08-25T02:19:04;24.73;;;13.27;;
70663;SDS011;58237;57.996;56.290;2022-08-25T02:21:30;25.42;;;14.02;;
70663;SDS011;58237;57.996;56.290;2022-08-25T02:23:55;26.10;;;13.45;;
70663;SDS011;58237;57.996;56.290;2022-08-25T02:26:20;26.52;;;13.55;;
70663;SDS011;58237;57.996;56.290;2022-08-25T02:28:46;25.88;;;14.50;;
70663;SDS011;58237;57.996;56.290;2022-08-25T02:31:12;24.48;;;13.77;;
70663;SDS011;58237;57.996;56.290;2022-08-25T02:33:37;29.23;;;13.27;;
70663;SDS011;58237;57.996;56.290;2022-08-25T02:36:03;23.38;;;13.55;;
70663;SDS011;58237;57.996;56.290;2022-08-25T02:38:28;27.38;;;14.00;;
70663;SDS011;58237;57.996;56.290;2022-08-25T02:40:54;27.70;;;14.73;;
70663;SDS011;58237;57.996;56.290;2022-08-25T02:43:20;28.63;;;14.98;;
70663;SDS011;58237;57.996;56.290;2022-08-25T02:45:46;29.88;;;15.43;;
70663;SDS011;58237;57.996;56.290;2022-08-25T02:48:11;25.38;;;14.27;;
70663;SDS011;58237;57.996;56.290;2022-08-25T02:50:36;24.45;;;14.00;;
70663;SDS011;58237;57.996;56.290;2022-08-25T02:53:02;27.02;;;13.98;;
70663;SDS011;58237;57.996;56.290;2022-08-25T02:55:27;26.80;;;14.25;;
70663;SDS011;58237;57.996;56.290;2022-08-25T02:57:52;29.05;;;14.70;;
70663;SDS011;58237;57.996;56.290;2022-08-25T03:00:18;26.73;;;14.63;;
70663;SDS011;58237;57.996;56.290;2022-08-25T03:02:43;23.70;;;13.18;;
70663;SDS011;58237;57.996;56.290;2022-08-25T03:05:09;24.30;;;13.65;;
70663;SDS011;58237;57.996;56.290;2022-08-25T03:07:35;26.48;;;14.57;;
70663;SDS011;58237;57.996;56.290;2022-08-25T03:10:05;27.33;;;14.75;;
70663;SDS011;58237;57.996;56.290;2022-08-25T03:12:30;26.90;;;14.95;;
70663;SDS011;58237;57.996;56.290;2022-08-25T03:14:56;26.48;;;15.77;;
70663;SDS011;58237;57.996;56.290;2022-08-25T03:17:21;28.60;;;15.88;;
70663;SDS011;58237;57.996;56.290;2022-08-25T03:19:46;42.40;;;22.85;;
70663;SDS011;58237;57.996;56.290;2022-08-25T03:22:12;41.65;;;21.92;;
70663;SDS011;58237;57.996;56.290;2022-08-25T03:24:37;34.30;;;19.45;;
70663;SDS011;58237;57.996;56.290;2022-08-25T03:27:02;30.08;;;18.38;;
70663;SDS011;58237;57.996;56.290;2022-08-25T03:29:29;30.75;;;19.30;;
70663;SDS011;58237;57.996;56.290;2022-08-25T03:31:55;27.63;;;16.15;;
70663;SDS011;58237;57.996;56.290;2022-08-25T03:34:21;28.80;;;16.45;;
70663;SDS011;58237;57.996;56.290;2022-08-25T03:36:47;26.88;;;16.15;;
70663;SDS011;58237;57.996;56.290;2022-08-25T03:39:13;26.77;;;16.42;;
70663;SDS011;58237;57.996;56.290;2022-08-25T03:41:40;31.65;;;17.10;;
70663;SDS011;58237;57.996;56.290;2022-08-25T03:44:06;26.60;;;14.75;;
70663;SDS011;58237;57.996;56.290;2022-08-25T03:46:34;27.33;;;15.27;;
70663;SDS011;58237;57.996;56.290;2022-08-25T03:49:01;27.00;;;15.10;;
70663;SDS011;58237;57.996;56.290;2022-08-25T03:51:29;22.77;;;13.93;;
70663;SDS011;58237;57.996;56.290;2022-08-25T03:53:55;24.48;;;15.18;;
70663;SDS011;58237;57.996;56.290;2022-08-25T03:56:21;24.92;;;15.20;;
70663;SDS011;58237;57.996;56.290;2022-08-25T03:58:46;29.00;;;16.00;;
70663;SDS011;58237;57.996;56.290;2022-08-25T04:01:11;26.67;;;14.95;;
70663;SDS011;58237;57.996;56.290;2022-08-25T04:03:37;26.77;;;14.93;;
70663;SDS011;58237;57.996;56.290;2022-08-25T04:06:03;26.90;;;15.30;;
70663;SDS011;58237;57.996;56.290;2022-08-25T04:08:28;27.42;;;16.08;;
70663;SDS011;58237;57.996;56.290;2022-08-25T04:10:54;25.25;;;15.38;;
70663;SDS011;58237;57.996;56.290;2022-08-25T04:13:19;25.92;;;15.23;;
70663;SDS011;58237;57.996;56.290;2022-08-25T04:15:44;23.98;;;14.38;;
70663;SDS011;58237;57.996;56.290;2022-08-25T04:18:10;26.52;;;14.90;;
70663;SDS011;58237;57.996;56.290;2022-08-25T04:20:36;24.40;;;14.27;;
70663;SDS011;58237;57.996;56.290;2022-08-25T04:23:01;23.55;;;13.77;;
70663;SDS011;58237;57.996;56.290;2022-08-25T04:25:27;26.70;;;14.40;;
70663;SDS011;58237;57.996;56.290;2022-08-25T04:27:52;23.42;;;13.85;;
70663;SDS011;58237;57.996;56.290;2022-08-25T04:30:18;26.90;;;14.88;;
70663;SDS011;58237;57.996;56.290;2022-08-25T04:32:43;27.80;;;15.00;;
70663;SDS011;58237;57.996;56.290;2022-08-25T04:35:09;24.77;;;15.13;;
70663;SDS011;58237;57.996;56.290;2022-08-25T04:37:34;29.00;;;14.98;;
70663;SDS011;58237;57.996;56.290;2022-08-25T04:39:59;23.33;;;14.50;;
70663;SDS011;58237;57.996;56.290;2022-08-25T04:42:34;25.08;;;13.77;;
70663;SDS011;58237;57.996;56.290;2022-08-25T04:44:59;24.38;;;14.43;;
70663;SDS011;58237;57.996;56.290;2022-08-25T04:47:24;24.17;;;14.30;;
70663;SDS011;58237;57.996;56.290;2022-08-25T04:49:50;25.33;;;13.63;;
70663;SDS011;58237;57.996;56.290;2022-08-25T04:52:15;24.00;;;14.32;;
70663;SDS011;58237;57.996;56.290;2022-08-25T04:54:41;25.27;;;14.70;;
70663;SDS011;58237;57.996;56.290;2022-08-25T04:57:06;28.38;;;14.75;;
70663;SDS011;58237;57.996;56.290;2022-08-25T04:59:32;26.05;;;13.93;;
70663;SDS011;58237;57.996;56.290;2022-08-25T05:01:58;22.77;;;14.43;;
70663;SDS011;58237;57.996;56.290;2022-08-25T05:04:23;25.67;;;14.68;;
70663;SDS011;58237;57.996;56.290;2022-08-25T05:06:49;26.98;;;14.05;;
70663;SDS011;58237;57.996;56.290;2022-08-25T05:09:14;24.30;;;15.20;;
70663;SDS011;58237;57.996;56.290;2022-08-25T05:11:39;24.95;;;13.85;;
70663;SDS011;58237;57.996;56.290;2022-08-25T05:14:05;26.85;;;14.70;;
70663;SDS011;58237;57.996;56.290;2022-08-25T05:16:30;24.42;;;14.02;;
70663;SDS011;58237;57.996;56.290;2022-08-25T05:18:56;25.15;;;13.73;;
70663;SDS011;58237;57.996;56.290;2022-08-25T05:21:23;27.00;;;15.75;;
70663;SDS011;58237;57.996;56.290;2022-08-25T05:23:48;26.50;;;14.65;;
70663;SDS011;58237;57.996;56.290;2022-08-25T05:26:16;25.33;;;13.85;;
70663;SDS011;58237;57.996;56.290;2022-08-25T05:28:42;25.35;;;15.32;;
70663;SDS011;58237;57.996;56.290;2022-08-25T05:31:08;24.73;;;14.57;;
70663;SDS011;58237;57.996;56.290;2022-08-25T05:33:34;28.55;;;15.93;;
70663;SDS011;58237;57.996;56.290;2022-08-25T05:36:00;25.42;;;15.10;;
70663;SDS011;58237;57.996;56.290;2022-08-25T05:38:26;25.02;;;15.52;;
70663;SDS011;58237;57.996;56.290;2022-08-25T05:40:58;24.35;;;16.02;;
70663;SDS011;58237;57.996;56.290;2022-08-25T05:43:24;26.07;;;16.77;;
70663;SDS011;58237;57.996;56.290;2022-08-25T05:45:49;29.35;;;16.92;;
70663;SDS011;58237;57.996;56.290;2022-08-25T05:48:17;24.13;;;15.40;;
70663;SDS011;58237;57.996;56.290;2022-08-25T05:50:49;24.65;;;14.82;;
70663;SDS011;58237;57.996;56.290;2022-08-25T05:53:14;25.92;;;15.82;;
70663;SDS011;58237;57.996;56.290;2022-08-25T05:55:42;23.98;;;15.27;;
70663;SDS011;58237;57.996;56.290;2022-08-25T05:58:08;26.20;;;15.15;;
70663;SDS011;58237;57.996;56.290;2022-08-25T06:00:33;27.73;;;15.77;;
70663;SDS011;58237;57.996;56.290;2022-08-25T06:02:58;24.38;;;14.13;;
70663;SDS011;58237;57.996;56.290;2022-08-25T06:05:24;24.92;;;14.85;;
70663;SDS011;58237;57.996;56.290;2022-08-25T06:07:50;25.63;;;14.88;;
70663;SDS011;58237;57.996;56.290;2022-08-25T06:10:16;32.22;;;16.77;;
70663;SDS011;58237;57.996;56.290;2022-08-25T06:12:43;27.33;;;15.98;;
70663;SDS011;58237;57.996;56.290;2022-08-25T06:15:09;25.35;;;15.30;;
70663;SDS011;58237;57.996;56.290;2022-08-25T06:17:34;26.77;;;16.00;;
70663;SDS011;58237;57.996;56.290;2022-08-25T06:20:00;28.02;;;16.02;;
70663;SDS011;58237;57.996;56.290;2022-08-25T06:22:25;25.83;;;15.43;;
70663;SDS011;58237;57.996;56.290;2022-08-25T06:24:51;31.42;;;17.13;;
70663;SDS011;58237;57.996;56.290;2022-08-25T06:27:16;27.75;;;16.02;;
70663;SDS011;58237;57.996;56.290;2022-08-25T06:29:41;24.52;;;14.68;;
70663;SDS011;58237;57.996;56.290;2022-08-25T06:32:07;27.50;;;17.27;;
70663;SDS011;58237;57.996;56.290;2022-08-25T06:34:32;26.80;;;15.82;;
70663;SDS011;58237;57.996;56.290;2022-08-25T06:36:57;26.88;;;15.13;;
70663;SDS011;58237;57.996;56.290;2022-08-25T06:39:23;23.67;;;15.73;;
70663;SDS011;58237;57.996;56.290;2022-08-25T06:41:51;25.90;;;16.58;;
70663;SDS011;58237;57.996;56.290;2022-08-25T06:44:17;29.90;;;17.13;;
70663;SDS011;58237;57.996;56.290;2022-08-25T06:46:42;27.20;;;16.27;;
70663;SDS011;58237;57.996;56.290;2022-08-25T06:49:08;27.75;;;16.25;;
70663;SDS011;58237;57.996;56.290;2022-08-25T06:51:33;24.33;;;15.55;;
70663;SDS011;58237;57.996;56.290;2022-08-25T06:53:58;27.17;;;14.85;;
70663;SDS011;58237;57.996;56.290;2022-08-25T06:56:24;26.27;;;14.68;;
70663;SDS011;58237;57.996;56.290;2022-08-25T06:58:49;25.50;;;14.88;;
70663;SDS011;58237;57.996;56.290;2022-08-25T07:01:16;25.50;;;15.38;;
70663;SDS011;58237;57.996;56.290;2022-08-25T07:03:42;24.27;;;15.38;;
70663;SDS011;58237;57.996;56.290;2022-08-25T07:06:07;25.05;;;15.15;;
70663;SDS011;58237;57.996;56.290;2022-08-25T07:08:33;27.90;;;15.98;;
70663;SDS011;58237;57.996;56.290;2022-08-25T07:11:03;29.38;;;16.77;;
70663;SDS011;58237;57.996;56.290;2022-08-25T07:13:28;28.10;;;17.02;;
70663;SDS011;58237;57.996;56.290;2022-08-25T07:15:53;25.15;;;16.70;;
70663;SDS011;58237;57.996;56.290;2022-08-25T07:18:19;28.10;;;17.20;;
70663;SDS011;58237;57.996;56.290;2022-08-25T07:20:44;28.45;;;17.35;;
70663;SDS011;58237;57.996;56.290;2022-08-25T07:23:09;25.95;;;16.58;;
70663;SDS011;58237;57.996;56.290;2022-08-25T07:25:35;26.25;;;16.27;;
70663;SDS011;58237;57.996;56.290;2022-08-25T07:28:00;28.00;;;17.30;;
70663;SDS011;58237;57.996;56.290;2022-08-25T07:30:26;26.35;;;16.42;;
70663;SDS011;58237;57.996;56.290;2022-08-25T07:32:51;26.48;;;16.08;;
70663;SDS011;58237;57.996;56.290;2022-08-25T07:35:17;26.23;;;17.45;;
70663;SDS011;58237;57.996;56.290;2022-08-25T07:37:43;30.67;;;17.83;;
70663;SDS011;58237;57.996;56.290;2022-08-25T07:40:10;29.48;;;19.05;;
70663;SDS011;58237;57.996;56.290;2022-08-25T07:42:36;28.50;;;17.65;;
70663;SDS011;58237;57.996;56.290;2022-08-25T07:45:01;29.60;;;18.33;;
70663;SDS011;58237;57.996;56.290;2022-08-25T07:47:28;29.75;;;17.00;;
70663;SDS011;58237;57.996;56.290;2022-08-25T07:49:53;26.38;;;16.83;;
70663;SDS011;58237;57.996;56.290;2022-08-25T07:52:18;26.10;;;17.08;;
70663;SDS011;58237;57.996;56.290;2022-08-25T07:54:44;25.15;;;15.32;;
70663;SDS011;58237;57.996;56.290;2022-08-25T07:57:09;23.98;;;15.50;;
70663;SDS011;58237;57.996;56.290;2022-08-25T07:59:38;28.70;;;18.63;;
70663;SDS011;58237;57.996;56.290;2022-08-25T08:02:04;32.33;;;20.45;;
70663;SDS011;58237;57.996;56.290;2022-08-25T08:04:29;28.85;;;19.80;;
70663;SDS011;58237;57.996;56.290;2022-08-25T08:06:54;29.00;;;19.17;;
70663;SDS011;58237;57.996;56.290;2022-08-25T08:09:19;30.73;;;20.17;;
70663;SDS011;58237;57.996;56.290;2022-08-25T08:11:45;28.83;;;17.23;;
70663;SDS011;58237;57.996;56.290;2022-08-25T08:14:10;30.25;;;17.92;;
70663;SDS011;58237;57.996;56.290;2022-08-25T08:16:35;32.67;;;18.88;;
70663;SDS011;58237;57.996;56.290;2022-08-25T08:19:01;30.90;;;19.45;;
70663;SDS011;58237;57.996;56.290;2022-08-25T08:21:28;28.83;;;18.95;;
70663;SDS011;58237;57.996;56.290;2022-08-25T08:23:54;28.55;;;19.13;;
70663;SDS011;58237;57.996;56.290;2022-08-25T08:26:19;28.90;;;19.15;;
70663;SDS011;58237;57.996;56.290;2022-08-25T08:28:44;28.52;;;19.90;;
70663;SDS011;58237;57.996;56.290;2022-08-25T08:31:10;29.58;;;19.98;;
70663;SDS011;58237;57.996;56.290;2022-08-25T08:33:36;29.15;;;17.38;;
70663;SDS011;58237;57.996;56.290;2022-08-25T08:36:03;32.03;;;20.00;;
70663;SDS011;58237;57.996;56.290;2022-08-25T08:38:28;34.30;;;20.52;;
70663;SDS011;58237;57.996;56.290;2022-08-25T08:43:22;26.95;;;17.40;;
70663;SDS011;58237;57.996;56.290;2022-08-25T08:45:49;27.88;;;18.60;;
70663;SDS011;58237;57.996;56.290;2022-08-25T08:53:44;29.02;;;19.27;;
70663;SDS011;58237;57.996;56.290;2022-08-25T08:56:19;27.25;;;16.98;;
70663;SDS011;58237;57.996;56.290;2022-08-25T08:58:55;28.13;;;17.50;;
70663;SDS011;58237;57.996;56.290;2022-08-25T09:02:11;29.02;;;18.58;;
70663;SDS011;58237;57.996;56.290;2022-08-25T09:04:08;27.20;;;17.23;;
70663;SDS011;58237;57.996;56.290;2022-08-25T09:06:42;27.88;;;17.45;;
70663;SDS011;58237;57.996;56.290;2022-08-25T09:09:08;27.02;;;17.60;;
70663;SDS011;58237;57.996;56.290;2022-08-25T09:14:25;26.25;;;17.58;;
70663;SDS011;58237;57.996;56.290;2022-08-25T09:17:13;27.40;;;17.83;;
70663;SDS011;58237;57.996;56.290;2022-08-25T09:20:00;27.85;;;19.00;;
70663;SDS011;58237;57.996;56.290;2022-08-25T09:25:01;28.08;;;17.63;;
70663;SDS011;58237;57.996;56.290;2022-08-25T09:27:38;27.88;;;17.00;;
70663;SDS011;58237;57.996;56.290;2022-08-25T09:30:14;28.33;;;19.00;;
70663;SDS011;58237;57.996;56.290;2022-08-25T09:32:41;29.17;;;18.08;;
70663;SDS011;58237;57.996;56.290;2022-08-25T09:35:09;28.25;;;18.35;;
70663;SDS011;58237;57.996;56.290;2022-08-25T09:37:36;27.27;;;18.15;;
70663;SDS011;58237;57.996;56.290;2022-08-25T09:40:02;26.83;;;19.10;;
70663;SDS011;58237;57.996;56.290;2022-08-25T09:47:57;25.45;;;15.30;;
70663;SDS011;58237;57.996;56.290;2022-08-25T09:50:22;27.08;;;17.70;;
70663;SDS011;58237;57.996;56.290;2022-08-25T09:52:48;25.60;;;15.77;;
70663;SDS011;58237;57.996;56.290;2022-08-25T10:02:38;31.30;;;21.00;;
70663;SDS011;58237;57.996;56.290;2022-08-25T10:05:17;28.55;;;19.25;;
70663;SDS011;58237;57.996;56.290;2022-08-25T10:07:50;28.75;;;18.38;;
70663;SDS011;58237;57.996;56.290;2022-08-25T10:12:41;29.15;;;18.33;;
70663;SDS011;58237;57.996;56.290;2022-08-25T10:15:19;29.67;;;18.75;;
70663;SDS011;58237;57.996;56.290;2022-08-25T10:17:44;27.40;;;17.63;;
70663;SDS011;58237;57.996;56.290;2022-08-25T10:22:35;28.15;;;18.48;;
70663;SDS011;58237;57.996;56.290;2022-08-25T10:25:04;26.55;;;17.60;;
70663;SDS011;58237;57.996;56.290;2022-08-25T10:30:17;25.35;;;16.70;;
70663;SDS011;58237;57.996;56.290;2022-08-25T10:32:48;28.05;;;17.80;;
70663;SDS011;58237;57.996;56.290;2022-08-25T10:35:25;23.63;;;15.80;;
70663;SDS011;58237;57.996;56.290;2022-08-25T10:40:29;22.77;;;15.25;;
70663;SDS011;58237;57.996;56.290;2022-08-25T10:45:23;27.17;;;14.68;;
70663;SDS011;58237;57.996;56.290;2022-08-25T10:47:53;23.77;;;15.15;;
70663;SDS011;58237;57.996;56.290;2022-08-25T10:55:21;26.48;;;16.33;;
70663;SDS011;58237;57.996;56.290;2022-08-25T10:58:01;24.15;;;15.55;;
70663;SDS011;58237;57.996;56.290;2022-08-25T11:00:33;26.92;;;14.77;;
70663;SDS011;58237;57.996;56.290;2022-08-25T11:05:37;26.30;;;15.95;;
70663;SDS011;58237;57.996;56.290;2022-08-25T11:08:05;21.40;;;14.50;;
70663;SDS011;58237;57.996;56.290;2022-08-25T11:10:36;28.88;;;17.40;;
70663;SDS011;58237;57.996;56.290;2022-08-25T11:13:04;24.08;;;16.08;;
70663;SDS011;58237;57.996;56.290;2022-08-25T11:18:01;22.38;;;14.27;;
70663;SDS011;58237;57.996;56.290;2022-08-25T11:20:33;24.63;;;15.55;;
70663;SDS011;58237;57.996;56.290;2022-08-25T11:23:12;22.98;;;15.43;;
70663;SDS011;58237;57.996;56.290;2022-08-25T11:25:41;25.30;;;15.48;;
70663;SDS011;58237;57.996;56.290;2022-08-25T11:30:35;24.70;;;16.50;;
70663;SDS011;58237;57.996;56.290;2022-08-25T11:33:00;20.85;;;14.57;;
70663;SDS011;58237;57.996;56.290;2022-08-25T11:38:12;22.98;;;15.50;;
70663;SDS011;58237;57.996;56.290;2022-08-25T11:40:56;27.13;;;16.70;;
70663;SDS011;58237;57.996;56.290;2022-08-25T11:56:38;23.67;;;14.70;;
70663;SDS011;58237;57.996;56.290;2022-08-25T11:59:03;24.25;;;15.55;;
70663;SDS011;58237;57.996;56.290;2022-08-25T12:07:14;22.58;;;14.23;;
70663;SDS011;58237;57.996;56.290;2022-08-25T12:09:23;22.58;;;14.13;;
70663;SDS011;58237;57.996;56.290;2022-08-25T12:11:49;22.17;;;13.57;;
70663;SDS011;58237;57.996;56.290;2022-08-25T12:19:50;32.70;;;20.70;;
70663;SDS011;58237;57.996;56.290;2022-08-25T12:27:08;30.45;;;18.65;;
70663;SDS011;58237;57.996;56.290;2022-08-25T12:32:11;29.92;;;19.98;;
70663;SDS011;58237;57.996;56.290;2022-08-25T12:37:22;31.00;;;17.45;;
70663;SDS011;58237;57.996;56.290;2022-08-25T12:47:52;24.30;;;15.90;;
70663;SDS011;58237;57.996;56.290;2022-08-25T12:52:49;25.60;;;15.15;;
70663;SDS011;58237;57.996;56.290;2022-08-25T12:55:16;22.73;;;14.27;;
70663;SDS011;58237;57.996;56.290;2022-08-25T13:11:17;24.83;;;16.45;;
70663;SDS011;58237;57.996;56.290;2022-08-25T13:13:56;24.02;;;15.07;;
70663;SDS011;58237;57.996;56.290;2022-08-25T13:16:25;25.35;;;13.88;;
70663;SDS011;58237;57.996;56.290;2022-08-25T13:18:51;22.80;;;13.88;;
70663;SDS011;58237;57.996;56.290;2022-08-25T13:21:36;22.33;;;13.20;;
70663;SDS011;58237;57.996;56.290;2022-08-25T13:24:03;20.13;;;12.02;;
70663;SDS011;58237;57.996;56.290;2022-08-25T13:26:33;21.88;;;12.68;;
70663;SDS011;58237;57.996;56.290;2022-08-25T13:31:33;23.17;;;13.95;;
70663;SDS011;58237;57.996;56.290;2022-08-25T13:34:00;28.45;;;16.50;;
70663;SDS011;58237;57.996;56.290;2022-08-25T13:36:27;22.85;;;14.18;;
70663;SDS011;58237;57.996;56.290;2022-08-25T13:38:52;22.77;;;13.82;;
70663;SDS011;58237;57.996;56.290;2022-08-25T13:41:18;19.73;;;11.73;;
70663;SDS011;58237;57.996;56.290;2022-08-25T13:43:44;19.20;;;12.05;;
70663;SDS011;58237;57.996;56.290;2022-08-25T13:46:09;16.05;;;10.32;;
70663;SDS011;58237;57.996;56.290;2022-08-25T13:48:36;20.08;;;9.35;;
70663;SDS011;58237;57.996;56.290;2022-08-25T13:51:35;14.60;;;8.93;;
70663;SDS011;58237;57.996;56.290;2022-08-25T13:53:55;17.63;;;9.55;;
70663;SDS011;58237;57.996;56.290;2022-08-25T13:56:25;14.45;;;9.18;;
70663;SDS011;58237;57.996;56.290;2022-08-25T13:58:51;16.42;;;9.73;;
70663;SDS011;58237;57.996;56.290;2022-08-25T14:01:21;15.55;;;9.50;;
70663;SDS011;58237;57.996;56.290;2022-08-25T14:03:46;15.00;;;8.82;;
70663;SDS011;58237;57.996;56.290;2022-08-25T14:11:25;15.30;;;9.60;;
70663;SDS011;58237;57.996;56.290;2022-08-25T14:13:59;13.90;;;8.77;;
70663;SDS011;58237;57.996;56.290;2022-08-25T14:16:24;16.95;;;9.10;;
70663;SDS011;58237;57.996;56.290;2022-08-25T14:18:51;18.10;;;10.43;;
70663;SDS011;58237;57.996;56.290;2022-08-25T14:21:18;18.35;;;10.50;;
70663;SDS011;58237;57.996;56.290;2022-08-25T14:23:44;21.08;;;11.57;;
70663;SDS011;58237;57.996;56.290;2022-08-25T14:26:09;20.38;;;10.98;;
70663;SDS011;58237;57.996;56.290;2022-08-25T14:28:35;17.88;;;10.48;;
70663;SDS011;58237;57.996;56.290;2022-08-25T14:31:04;20.23;;;10.48;;
70663;SDS011;58237;57.996;56.290;2022-08-25T14:33:32;17.40;;;9.57;;
70663;SDS011;58237;57.996;56.290;2022-08-25T14:35:59;16.20;;;10.02;;
70663;SDS011;58237;57.996;56.290;2022-08-25T14:38:25;18.40;;;10.20;;
70663;SDS011;58237;57.996;56.290;2022-08-25T14:40:50;16.83;;;9.98;;
70663;SDS011;58237;57.996;56.290;2022-08-25T14:43:16;14.77;;;8.95;;
70663;SDS011;58237;57.996;56.290;2022-08-25T14:45:42;17.17;;;9.82;;
70663;SDS011;58237;57.996;56.290;2022-08-25T14:48:31;16.80;;;10.13;;
70663;SDS011;58237;57.996;56.290;2022-08-25T14:50:55;19.90;;;9.77;;
70663;SDS011;58237;57.996;56.290;2022-08-25T14:53:21;19.38;;;11.05;;
70663;SDS011;58237;57.996;56.290;2022-08-25T14:55:46;17.85;;;10.80;;
70663;SDS011;58237;57.996;56.290;2022-08-25T14:58:12;19.45;;;11.10;;
70663;SDS011;58237;57.996;56.290;2022-08-25T15:00:39;22.45;;;12.40;;
70663;SDS011;58237;57.996;56.290;2022-08-25T15:03:05;22.85;;;12.23;;
70663;SDS011;58237;57.996;56.290;2022-08-25T15:05:30;20.35;;;11.95;;
70663;SDS011;58237;57.996;56.290;2022-08-25T15:07:55;21.88;;;12.20;;
70663;SDS011;58237;57.996;56.290;2022-08-25T15:10:21;19.95;;;11.82;;
70663;SDS011;58237;57.996;56.290;2022-08-25T15:12:47;22.15;;;11.35;;
70663;SDS011;58237;57.996;56.290;2022-08-25T15:15:12;21.60;;;11.52;;
70663;SDS011;58237;57.996;56.290;2022-08-25T15:17:38;18.02;;;10.68;;
70663;SDS011;58237;57.996;56.290;2022-08-25T15:20:03;21.98;;;11.10;;
70663;SDS011;58237;57.996;56.290;2022-08-25T15:22:29;21.48;;;11.80;;
70663;SDS011;58237;57.996;56.290;2022-08-25T15:24:54;21.42;;;11.48;;
70663;SDS011;58237;57.996;56.290;2022-08-25T15:27:20;21.52;;;11.77;;
70663;SDS011;58237;57.996;56.290;2022-08-25T15:29:45;19.55;;;11.20;;
70663;SDS011;58237;57.996;56.290;2022-08-25T15:32:11;17.88;;;10.80;;
70663;SDS011;58237;57.996;56.290;2022-08-25T15:34:36;21.85;;;11.35;;
70663;SDS011;58237;57.996;56.290;2022-08-25T15:37:05;19.92;;;11.93;;
70663;SDS011;58237;57.996;56.290;2022-08-25T15:39:31;22.08;;;11.45;;
70663;SDS011;58237;57.996;56.290;2022-08-25T15:41:57;25.15;;;11.57;;
70663;SDS011;58237;57.996;56.290;2022-08-25T15:44:22;23.35;;;12.80;;
70663;SDS011;58237;57.996;56.290;2022-08-25T15:46:47;30.27;;;14.70;;
70663;SDS011;58237;57.996;56.290;2022-08-25T15:49:13;26.67;;;14.85;;
70663;SDS011;58237;57.996;56.290;2022-08-25T15:51:38;25.98;;;14.27;;
70663;SDS011;58237;57.996;56.290;2022-08-25T15:54:04;27.58;;;15.32;;
70663;SDS011;58237;57.996;56.290;2022-08-25T15:56:29;28.63;;;14.52;;
70663;SDS011;58237;57.996;56.290;2022-08-25T15:58:54;25.38;;;13.48;;
70663;SDS011;58237;57.996;56.290;2022-08-25T16:01:24;25.90;;;13.85;;
70663;SDS011;58237;57.996;56.290;2022-08-25T16:03:49;26.08;;;14.90;;
70663;SDS011;58237;57.996;56.290;2022-08-25T16:06:15;27.70;;;14.07;;
70663;SDS011;58237;57.996;56.290;2022-08-25T16:08:40;25.15;;;13.95;;
70663;SDS011;58237;57.996;56.290;2022-08-25T16:11:06;24.08;;;13.75;;
70663;SDS011;58237;57.996;56.290;2022-08-25T16:13:39;25.17;;;13.70;;
70663;SDS011;58237;57.996;56.290;2022-08-25T16:16:05;21.67;;;12.90;;